Time;durP1;ratioP1;P1;durP2;ratioP2;P2;SDS_P1;SDS_P2;PMS_P1;PMS_P2;Temp;Humidity;BMP_temperature;BMP_pressure;BME280_temperature;BME280_humidity;BME280_pressure;Samples;Min_cycle;Max_cycle;Signal;HPM_P1;HPM_P2
2021/01/26 00:01:01;;;;;;;;;;;3.10;99.90;;;;;;4941244;29;19914;-88
2021/01/26 00:03:47;;;;;;;;;;;3.10;99.90;;;;;;4957350;29;20326;-88
2021/01/26 00:06:14;;;;;;;;;;;3.10;99.90;;;;;;4896421;29;19970;-88
2021/01/26 00:08:39;;;;;;;;;;;3.10;99.90;;;;;;4905361;29;19923;-87
2021/01/26 00:11:36;;;;;;;;;;;3.00;99.90;;;;;;4905737;29;19915;-87
2021/01/26 00:14:02;;;;;;;;;;;3.00;99.90;;;;;;4892174;29;20406;-86
2021/01/26 00:16:28;;;;;;;;;;;3.10;99.90;;;;;;4896835;29;19916;-87
2021/01/26 00:19:06;;;;;;;;;;;;;;;;;;;;;
2021/01/26 00:24:58;;;;;;;;;;;3.00;99.90;;;;;;4965487;28;20394;-87
2021/01/26 00:27:24;;;;;;;;;;;3.00;99.90;;;;;;4953731;28;19915;-89
2021/01/26 00:29:49;;;;;;;;;;;3.00;99.90;;;;;;4951876;29;19922;-87
2021/01/26 00:32:15;;;;;;;;;;;3.00;99.90;;;;;;4936593;29;20038;-87
2021/01/26 00:34:40;;;;;;;;;;;3.00;99.90;;;;;;4955825;29;19954;-87
2021/01/26 00:37:09;;;;;;;;;;;2.90;99.90;;;;;;4961277;28;19961;-88
2021/01/26 00:39:35;;;;;;;;;;;2.80;99.90;;;;;;4934476;28;20375;-88
2021/01/26 00:42:01;;;;;;;;;;;2.80;99.90;;;;;;4951819;29;19919;-87
2021/01/26 00:44:26;;;;;;;;;;;2.80;99.90;;;;;;4992540;28;20012;-87
2021/01/26 00:46:58;;;;;;;;;;;2.80;99.90;;;;;;4994824;28;19913;-88
2021/01/26 00:49:37;;;;;;;;;;;2.80;99.90;;;;;;5010877;28;19917;-88
2021/01/26 00:52:02;;;;;;;;;;;2.80;99.90;;;;;;4946323;28;20406;-86
2021/01/26 00:57:31;;;;;;;;;;;2.70;99.90;;;;;;5009347;28;19933;-87
2021/01/26 01:00:00;;;;;;;;;;;2.60;99.90;;;;;;4992223;28;19910;-88
2021/01/26 01:02:25;;;;;;;;;;;2.60;99.90;;;;;;4973022;28;19941;-88
2021/01/26 01:04:51;;;;;;;;;;;2.60;99.90;;;;;;4989437;28;19922;-86
2021/01/26 01:07:16;;;;;;;;;;;2.60;99.90;;;;;;4992420;28;19914;-86
2021/01/26 01:09:45;;;;;;;;;;;2.70;99.90;;;;;;4968788;28;20036;-88
2021/01/26 01:12:11;;;;;;;;;;;2.70;99.90;;;;;;4992678;28;19918;-88
2021/01/26 01:14:40;;;;;;;;;;;2.70;99.90;;;;;;4975506;28;19945;-87
2021/01/26 01:17:05;;;;;;;;;;;2.60;99.90;;;;;;4974338;28;19918;-87
2021/01/26 01:19:31;;;;;;;;;;;2.50;99.90;;;;;;4978357;28;19921;-86
2021/01/26 01:21:56;;;;;;;;;;;2.50;99.90;;;;;;4983027;28;20062;-88
2021/01/26 01:24:22;;;;;;;;;;;2.60;99.90;;;;;;5026111;28;20072;-86
2021/01/26 01:26:50;;;;;;;;;;;2.50;99.90;;;;;;5028659;28;19912;-86
2021/01/26 01:29:16;;;;;;;;;;;2.50;99.90;;;;;;5015788;28;20003;-87
2021/01/26 01:31:41;;;;;;;;;;;2.50;99.90;;;;;;5007109;28;19917;-87
2021/01/26 01:34:07;;;;;;;;;;;2.60;99.90;;;;;;5010263;28;19894;-87
2021/01/26 01:36:36;;;;;;;;;;;2.60;99.90;;;;;;5017329;28;19908;-87
2021/01/26 01:39:03;;;;;;;;;;;2.60;99.90;;;;;;5018496;28;19901;-87
2021/01/26 01:41:30;;;;;;;;;;;2.50;99.90;;;;;;5017126;28;19902;-90
2021/01/26 01:47:08;;;;;;;;;;;2.50;99.90;;;;;;5029406;28;19914;-87
2021/01/26 01:49:41;;;;;;;;;;;2.50;99.90;;;;;;4995697;28;19921;-87
2021/01/26 01:52:10;;;;;;;;;;;2.50;99.90;;;;;;5012315;28;20295;-87
2021/01/26 01:54:38;;;;;;;;;;;2.40;99.90;;;;;;4993187;28;20381;-86
2021/01/26 01:57:18;;;;;;;;;;;2.40;99.90;;;;;;5008396;28;19917;-89
2021/01/26 01:59:47;;;;;;;;;;;2.50;99.90;;;;;;5000426;28;19914;-87
2021/01/26 02:02:13;;;;;;;;;;;2.50;99.90;;;;;;5005383;28;19924;-88
2021/01/26 02:04:40;;;;;;;;;;;2.50;99.90;;;;;;5010469;28;19925;-87
2021/01/26 02:07:18;;;;;;;;;;;2.50;99.90;;;;;;5001722;28;19922;-86
2021/01/26 02:09:43;;;;;;;;;;;2.60;99.90;;;;;;5007795;28;19976;-87
2021/01/26 02:12:11;;;;;;;;;;;2.60;99.90;;;;;;5001293;28;19948;-88
2021/01/26 02:14:38;;;;;;;;;;;2.50;99.90;;;;;;5008193;28;19917;-88
2021/01/26 02:17:10;;;;;;;;;;;2.50;99.90;;;;;;4994477;28;19928;-88
2021/01/26 02:20:11;;;;;;;;;;;2.50;99.90;;;;;;5014094;28;19998;-87
2021/01/26 02:22:52;;;;;;;;;;;2.40;99.90;;;;;;4908871;29;19919;-87
2021/01/26 02:25:36;;;;;;;;;;;2.30;99.90;;;;;;4921580;29;19933;-87
2021/01/26 02:28:07;;;;;;;;;;;2.30;99.90;;;;;;4918830;29;19925;-87
2021/01/26 02:30:40;;;;;;;;;;;2.20;99.90;;;;;;4911623;29;19928;-87
2021/01/26 02:33:24;;;;;;;;;;;2.20;99.90;;;;;;4941333;29;19918;-87
2021/01/26 02:35:59;;;;;;;;;;;2.10;99.90;;;;;;4938058;29;19960;-87
2021/01/26 02:38:43;;;;;;;;;;;2.20;99.90;;;;;;4938954;29;19915;-87
2021/01/26 02:41:11;;;;;;;;;;;2.10;99.90;;;;;;4916846;29;19923;-87
2021/01/26 02:43:56;;;;;;;;;;;2.10;99.90;;;;;;4927121;29;20052;-87
2021/01/26 02:46:24;;;;;;;;;;;2.10;99.90;;;;;;4936121;29;19911;-87
2021/01/26 02:48:50;;;;;;;;;;;2.20;99.90;;;;;;4935751;29;20438;-87
2021/01/26 02:51:15;;;;;;;;;;;2.20;99.90;;;;;;4935791;29;19915;-87
2021/01/26 02:53:56;;;;;;;;;;;2.20;99.90;;;;;;4949312;29;19942;-87
2021/01/26 02:56:51;;;;;;;;;;;2.20;99.90;;;;;;4980535;28;19967;-88
2021/01/26 02:59:39;;;;;;;;;;;2.20;99.90;;;;;;5020052;28;19912;-87
2021/01/26 03:02:23;;;;;;;;;;;2.20;99.90;;;;;;5011424;28;20324;-87
2021/01/26 03:04:51;;;;;;;;;;;2.20;99.90;;;;;;5017418;28;19917;-87
2021/01/26 03:10:22;;;;;;;;;;;2.20;99.90;;;;;;5029033;28;20015;-87
2021/01/26 03:16:02;;;;;;;;;;;2.10;99.90;;;;;;5034142;28;20020;-88
2021/01/26 03:18:32;;;;;;;;;;;2.10;99.90;;;;;;5029435;28;19929;-88
2021/01/26 03:21:32;;;;;;;;;;;2.00;99.90;;;;;;5013998;28;19920;-88
2021/01/26 03:24:06;;;;;;;;;;;2.00;99.90;;;;;;5005794;28;19933;-88
2021/01/26 03:26:33;;;;;;;;;;;2.10;99.90;;;;;;4987253;28;19918;-88
2021/01/26 03:29:31;;;;;;;;;;;2.00;99.90;;;;;;4995289;28;19937;-87
2021/01/26 03:31:58;;;;;;;;;;;2.00;99.90;;;;;;5034729;28;20361;-87
2021/01/26 03:34:27;;;;;;;;;;;1.90;99.90;;;;;;5008735;28;19913;-87
2021/01/26 03:40:26;;;;;;;;;;;1.90;99.90;;;;;;4986642;28;19938;-89
2021/01/26 03:42:52;;;;;;;;;;;1.90;99.90;;;;;;4973837;28;19918;-89
2021/01/26 03:45:17;;;;;;;;;;;1.80;99.90;;;;;;4979984;28;19982;-88
2021/01/26 03:48:19;;;;;;;;;;;1.80;99.90;;;;;;4987419;28;19906;-89
2021/01/26 03:51:04;;;;;;;;;;;1.80;99.90;;;;;;4908523;29;19952;-88
2021/01/26 03:53:48;;;;;;;;;;;1.80;99.90;;;;;;4904394;29;19912;-87
2021/01/26 03:56:28;;;;;;;;;;;1.70;99.90;;;;;;4901638;29;19908;-88
2021/01/26 03:59:02;;;;;;;;;;;1.80;99.90;;;;;;4917235;29;19904;-87
2021/01/26 04:01:35;;;;;;;;;;;1.70;99.90;;;;;;4987020;23;19995;-84
2021/01/26 04:04:00;;;;;;;;;;;1.80;99.90;;;;;;4996577;28;19925;-84
2021/01/26 04:06:42;;;;;;;;;;;1.70;99.90;;;;;;4993870;28;20377;-85
2021/01/26 04:09:10;;;;;;;;;;;1.80;99.90;;;;;;4980482;28;20366;-84
2021/01/26 04:11:58;;;;;;;;;;;1.80;99.90;;;;;;4990209;28;19914;-84
2021/01/26 04:14:27;;;;;;;;;;;1.80;99.90;;;;;;4991255;28;19909;-85
2021/01/26 04:16:55;;;;;;;;;;;1.90;99.90;;;;;;4978131;28;19952;-85
2021/01/26 04:19:27;;;;;;;;;;;1.90;99.90;;;;;;4983344;28;19914;-84
2021/01/26 04:21:52;;;;;;;;;;;1.90;99.90;;;;;;4995240;28;19909;-84
2021/01/26 04:24:18;;;;;;;;;;;1.90;99.90;;;;;;4991673;28;19918;-84
2021/01/26 04:26:45;;;;;;;;;;;1.90;99.90;;;;;;4974576;28;20060;-85
2021/01/26 04:29:10;;;;;;;;;;;1.90;99.90;;;;;;4971103;28;19973;-84
2021/01/26 04:31:36;;;;;;;;;;;1.80;99.90;;;;;;4999310;28;19994;-85
2021/01/26 04:34:02;;;;;;;;;;;1.80;99.90;;;;;;4994461;28;19910;-84
2021/01/26 04:36:27;;;;;;;;;;;1.90;99.90;;;;;;4995350;28;20297;-85
2021/01/26 04:38:53;;;;;;;;;;;1.90;99.90;;;;;;4980514;28;19962;-84
2021/01/26 04:41:24;;;;;;;;;;;2.00;99.90;;;;;;4976156;28;19914;-84
2021/01/26 04:43:59;;;;;;;;;;;2.00;99.90;;;;;;4974534;28;19929;-84
2021/01/26 04:46:34;;;;;;;;;;;1.90;99.90;;;;;;4980477;28;20397;-85
2021/01/26 04:49:09;;;;;;;;;;;2.00;99.90;;;;;;4975568;28;19909;-84
2021/01/26 04:51:41;;;;;;;;;;;2.00;99.90;;;;;;4977790;28;19960;-84
2021/01/26 04:54:24;;;;;;;;;;;2.00;99.90;;;;;;5007541;28;19917;-84
2021/01/26 04:57:08;;;;;;;;;;;2.00;99.90;;;;;;4988309;28;19993;-85
2021/01/26 04:59:53;;;;;;;;;;;2.00;99.90;;;;;;4979418;28;20052;-85
2021/01/26 05:02:21;;;;;;;;;;;2.00;99.90;;;;;;4977194;28;19929;-84
2021/01/26 05:04:57;;;;;;;;;;;2.10;99.90;;;;;;4991682;28;19929;-83
2021/01/26 05:07:27;;;;;;;;;;;2.10;99.90;;;;;;4995225;28;19964;-83
2021/01/26 05:09:57;;;;;;;;;;;2.10;99.90;;;;;;4991603;28;19921;-83
2021/01/26 05:12:25;;;;;;;;;;;2.00;99.90;;;;;;4963049;28;19914;-83
2021/01/26 05:14:53;;;;;;;;;;;2.10;99.90;;;;;;4974672;28;19914;-83
2021/01/26 05:17:21;;;;;;;;;;;2.10;99.90;;;;;;4975898;28;19921;-83
2021/01/26 05:19:53;;;;;;;;;;;2.10;99.90;;;;;;4980535;28;20016;-83
2021/01/26 05:22:25;;;;;;;;;;;2.20;99.90;;;;;;4985752;28;19937;-83
2021/01/26 05:24:54;;;;;;;;;;;2.20;99.90;;;;;;4972496;28;19921;-84
2021/01/26 05:27:20;;;;;;;;;;;2.20;99.90;;;;;;4979449;28;20278;-84
2021/01/26 05:29:46;;;;;;;;;;;2.20;99.90;;;;;;4977767;28;20385;-84
2021/01/26 05:32:12;;;;;;;;;;;2.20;99.90;;;;;;4992035;28;19979;-83
2021/01/26 05:34:38;;;;;;;;;;;2.20;99.90;;;;;;4981297;28;19918;-83
2021/01/26 05:37:07;;;;;;;;;;;2.20;99.90;;;;;;4979629;28;19913;-83
2021/01/26 05:39:44;;;;;;;;;;;2.10;99.90;;;;;;4981545;28;20274;-84
2021/01/26 05:42:11;;;;;;;;;;;2.20;99.90;;;;;;4990174;28;19914;-83
2021/01/26 05:44:36;;;;;;;;;;;2.10;99.90;;;;;;4984476;28;19921;-83
2021/01/26 05:47:21;;;;;;;;;;;2.10;99.90;;;;;;4974728;28;19910;-84
2021/01/26 05:49:46;;;;;;;;;;;2.20;99.90;;;;;;4981345;28;19948;-84
2021/01/26 05:52:12;;;;;;;;;;;2.20;99.90;;;;;;4986314;28;19910;-84
2021/01/26 05:54:44;;;;;;;;;;;2.20;99.90;;;;;;4980540;28;19918;-84
2021/01/26 05:57:09;;;;;;;;;;;2.20;99.90;;;;;;4974520;28;19920;-84
2021/01/26 05:59:37;;;;;;;;;;;2.10;99.90;;;;;;4974431;28;19917;-84
2021/01/26 06:02:22;;;;;;;;;;;2.10;99.90;;;;;;4967445;28;19921;-84
2021/01/26 06:04:48;;;;;;;;;;;2.20;99.90;;;;;;4970159;28;19988;-84
2021/01/26 06:07:21;;;;;;;;;;;2.10;99.90;;;;;;4970769;28;20366;-84
2021/01/26 06:09:47;;;;;;;;;;;2.10;99.90;;;;;;4963617;28;20341;-85
2021/01/26 06:12:17;;;;;;;;;;;2.10;99.90;;;;;;4973040;28;19913;-84
2021/01/26 06:14:44;;;;;;;;;;;2.10;99.90;;;;;;4971816;28;19918;-82
2021/01/26 06:17:18;;;;;;;;;;;2.10;99.90;;;;;;4975601;28;19917;-83
2021/01/26 06:19:43;;;;;;;;;;;2.10;99.90;;;;;;4982026;28;19913;-83
2021/01/26 06:22:21;;;;;;;;;;;2.20;99.90;;;;;;5009557;28;20248;-83
2021/01/26 06:24:47;;;;;;;;;;;2.10;99.90;;;;;;4977947;28;19946;-83
2021/01/26 06:27:13;;;;;;;;;;;2.20;99.90;;;;;;4987908;28;19969;-83
2021/01/26 06:29:49;;;;;;;;;;;2.20;99.90;;;;;;5000151;28;19925;-83
2021/01/26 06:32:22;;;;;;;;;;;2.10;99.90;;;;;;4989403;28;19933;-84
2021/01/26 06:34:56;;;;;;;;;;;2.10;99.90;;;;;;4985938;28;19918;-83
2021/01/26 06:37:28;;;;;;;;;;;2.20;99.90;;;;;;4974457;28;19921;-83
2021/01/26 06:40:12;;;;;;;;;;;2.20;99.90;;;;;;4976437;28;19914;-84
2021/01/26 06:42:41;;;;;;;;;;;2.20;99.90;;;;;;4989285;28;19918;-83
2021/01/26 06:45:22;;;;;;;;;;;2.30;99.90;;;;;;4973018;28;19922;-84
2021/01/26 06:48:03;;;;;;;;;;;2.30;99.90;;;;;;4972248;28;19935;-83
2021/01/26 06:50:40;;;;;;;;;;;2.30;99.90;;;;;;4974808;28;20307;-84
2021/01/26 06:53:14;;;;;;;;;;;2.30;99.90;;;;;;4973655;28;20012;-83
2021/01/26 06:55:51;;;;;;;;;;;2.30;99.90;;;;;;4973121;28;19937;-84
2021/01/26 06:58:31;;;;;;;;;;;2.40;99.90;;;;;;4974961;28;20020;-84
2021/01/26 07:01:15;;;;;;;;;;;2.40;99.90;;;;;;4972171;28;20024;-83
2021/01/26 07:04:07;;;;;;;;;;;2.30;99.90;;;;;;4966802;28;19922;-84
2021/01/26 07:06:44;;;;;;;;;;;2.30;99.90;;;;;;4999281;28;19929;-84
2021/01/26 07:09:09;;;;;;;;;;;2.30;99.90;;;;;;4997336;28;20358;-84
2021/01/26 07:11:42;;;;;;;;;;;2.40;99.90;;;;;;4987387;28;19919;-84
2021/01/26 07:14:23;;;;;;;;;;;2.40;99.90;;;;;;4992054;28;19921;-83
2021/01/26 07:16:54;;;;;;;;;;;2.40;99.90;;;;;;4978828;28;20362;-84
2021/01/26 07:19:22;;;;;;;;;;;2.50;99.90;;;;;;4981161;28;19914;-84
2021/01/26 07:21:57;;;;;;;;;;;2.40;99.90;;;;;;4978980;28;19972;-83
2021/01/26 07:24:38;;;;;;;;;;;2.50;99.90;;;;;;4984735;28;20358;-84
2021/01/26 07:27:22;;;;;;;;;;;2.50;99.90;;;;;;4975293;28;20020;-83
2021/01/26 07:30:03;;;;;;;;;;;2.40;99.90;;;;;;4990145;28;19928;-82
2021/01/26 07:32:47;;;;;;;;;;;2.50;99.90;;;;;;4993189;28;19963;-82
2021/01/26 07:35:18;;;;;;;;;;;2.50;99.90;;;;;;4996390;28;19921;-83
2021/01/26 07:37:49;;;;;;;;;;;2.50;99.90;;;;;;4977938;28;19928;-82
2021/01/26 07:40:20;;;;;;;;;;;2.60;99.90;;;;;;4971251;28;19929;-83
2021/01/26 07:42:51;;;;;;;;;;;2.60;99.90;;;;;;4975689;28;20021;-84
2021/01/26 07:45:29;;;;;;;;;;;2.60;99.90;;;;;;4973530;28;20016;-82
2021/01/26 07:48:03;;;;;;;;;;;2.60;99.90;;;;;;4971096;28;20057;-82
2021/01/26 07:50:46;;;;;;;;;;;2.60;99.90;;;;;;4973518;28;19921;-83
2021/01/26 07:53:30;;;;;;;;;;;2.60;99.90;;;;;;4980701;28;19914;-83
2021/01/26 07:56:25;;;;;;;;;;;2.70;99.90;;;;;;4999995;28;19921;-82
2021/01/26 07:58:51;;;;;;;;;;;2.60;99.90;;;;;;4942471;28;19925;-82
2021/01/26 08:01:25;;;;;;;;;;;2.70;99.90;;;;;;4954492;28;20415;-82
2021/01/26 08:03:50;;;;;;;;;;;2.70;99.90;;;;;;4935434;28;19937;-82
2021/01/26 08:06:34;;;;;;;;;;;2.70;99.90;;;;;;4940686;28;20017;-83
2021/01/26 08:09:00;;;;;;;;;;;2.70;99.90;;;;;;4951046;28;19934;-82
2021/01/26 08:11:27;;;;;;;;;;;2.80;99.90;;;;;;4927779;29;19915;-82
2021/01/26 08:13:58;;;;;;;;;;;2.70;99.90;;;;;;4915652;29;19925;-81
2021/01/26 08:16:27;;;;;;;;;;;2.80;99.90;;;;;;4927765;29;20378;-82
2021/01/26 08:18:52;;;;;;;;;;;2.80;99.90;;;;;;4911870;29;19915;-81
2021/01/26 08:21:37;;;;;;;;;;;2.80;99.90;;;;;;4911951;29;19945;-82
2021/01/26 08:24:27;;;;;;;;;;;2.90;99.90;;;;;;4932479;29;19934;-82
2021/01/26 08:26:55;;;;;;;;;;;2.80;99.90;;;;;;4929971;29;19971;-83
2021/01/26 08:29:39;;;;;;;;;;;2.90;99.90;;;;;;4930726;28;20363;-83
2021/01/26 08:32:30;;;;;;;;;;;2.90;99.90;;;;;;4947593;28;19921;-82
2021/01/26 08:34:56;;;;;;;;;;;2.90;99.90;;;;;;4929159;28;19915;-81
2021/01/26 08:37:24;;;;;;;;;;;2.90;99.90;;;;;;4933935;28;19926;-83
2021/01/26 08:39:51;;;;;;;;;;;2.90;99.90;;;;;;4946963;28;19921;-83
2021/01/26 08:42:35;;;;;;;;;;;2.90;99.90;;;;;;4955959;28;19922;-82
2021/01/26 08:45:01;;;;;;;;;;;2.90;99.90;;;;;;4970981;28;19957;-82
2021/01/26 08:47:46;;;;;;;;;;;3.00;99.90;;;;;;4967980;28;19963;-83
2021/01/26 08:50:12;;;;;;;;;;;3.00;99.90;;;;;;4971704;28;19958;-83
2021/01/26 08:52:37;;;;;;;;;;;3.20;99.90;;;;;;4987679;28;19929;-82
2021/01/26 08:55:03;;;;;;;;;;;3.10;99.90;;;;;;4971686;28;19928;-82
2021/01/26 08:57:29;;;;;;;;;;;3.20;99.90;;;;;;4971458;28;19917;-82
2021/01/26 08:59:55;;;;;;;;;;;3.20;99.90;;;;;;4987114;28;19926;-83
2021/01/26 09:02:35;;;;;;;;;;;3.20;99.90;;;;;;4970948;28;19981;-83
2021/01/26 09:05:00;;;;;;;;;;;3.10;99.90;;;;;;4968189;28;19930;-83
2021/01/26 09:07:52;;;;;;;;;;;3.10;99.90;;;;;;4969000;28;21257;-82
2021/01/26 09:10:33;;;;;;;;;;;3.10;99.90;;;;;;4983180;28;20357;-83
2021/01/26 09:13:17;;;;;;;;;;;3.10;99.90;;;;;;4972279;28;19969;-83
2021/01/26 09:15:52;;;;;;;;;;;3.20;99.90;;;;;;4987546;28;19926;-83
2021/01/26 09:18:19;;;;;;;;;;;3.10;99.90;;;;;;4981490;28;19918;-82
2021/01/26 09:20:45;;;;;;;;;;;3.20;99.90;;;;;;4974060;28;19922;-82
2021/01/26 09:23:11;;;;;;;;;;;3.30;99.90;;;;;;4970944;28;20016;-82
2021/01/26 09:25:41;;;;;;;;;;;3.20;99.90;;;;;;4974502;28;19977;-81
2021/01/26 09:28:11;;;;;;;;;;;3.20;99.90;;;;;;4958639;28;19989;-81
2021/01/26 09:30:39;;;;;;;;;;;3.30;99.90;;;;;;4967075;28;19918;-81
2021/01/26 09:33:05;;;;;;;;;;;3.30;99.90;;;;;;4968257;28;19973;-82
2021/01/26 09:35:33;;;;;;;;;;;3.30;99.90;;;;;;4964831;28;20395;-83
2021/01/26 09:38:05;;;;;;;;;;;3.30;99.90;;;;;;4968770;28;19922;-82
2021/01/26 09:40:30;;;;;;;;;;;3.30;99.90;;;;;;4968258;28;20386;-82
2021/01/26 09:43:11;;;;;;;;;;;3.40;99.90;;;;;;4971895;28;19941;-81
2021/01/26 09:45:37;;;;;;;;;;;3.50;99.90;;;;;;4966894;28;19985;-82
2021/01/26 09:48:05;;;;;;;;;;;3.60;99.90;;;;;;4966339;28;20456;-83
2021/01/26 09:50:31;;;;;;;;;;;3.60;99.90;;;;;;4969870;28;19936;-82
2021/01/26 09:52:58;;;;;;;;;;;3.70;99.90;;;;;;4969548;28;20257;-82
2021/01/26 09:55:26;;;;;;;;;;;3.60;99.90;;;;;;4970371;28;19918;-82
2021/01/26 09:57:54;;;;;;;;;;;3.70;99.90;;;;;;4964745;28;20048;-81
2021/01/26 10:00:22;;;;;;;;;;;3.70;99.90;;;;;;4966989;28;19921;-82
2021/01/26 10:02:52;;;;;;;;;;;3.80;99.90;;;;;;4988822;28;19922;-81
2021/01/26 10:05:20;;;;;;;;;;;3.80;99.90;;;;;;4973368;28;19980;-82
2021/01/26 10:08:02;;;;;;;;;;;3.90;99.90;;;;;;4987704;28;20397;-82
2021/01/26 10:10:28;;;;;;;;;;;4.00;99.90;;;;;;4973089;28;19932;-81
2021/01/26 10:12:54;;;;;;;;;;;4.20;99.90;;;;;;4977719;28;19972;-81
2021/01/26 10:15:22;;;;;;;;;;;4.30;99.90;;;;;;4942567;28;19923;-86
2021/01/26 10:17:50;;;;;;;;;;;4.60;99.90;;;;;;4952167;28;19954;-87
2021/01/26 10:20:22;;;;;;;;;;;5.00;99.90;;;;;;4931216;28;19993;-84
2021/01/26 10:22:47;;;;;;;;;;;5.30;99.90;;;;;;4926715;28;19926;-83
2021/01/26 10:25:14;;;;;;;;;;;5.90;99.90;;;;;;4926365;28;19996;-81
2021/01/26 10:27:40;;;;;;;;;;;6.20;99.90;;;;;;4943492;28;20984;-81
2021/01/26 10:30:15;;;;;;;;;;;6.50;99.90;;;;;;4927649;28;19923;-82
2021/01/26 10:32:46;;;;;;;;;;;7.10;99.90;;;;;;4926292;28;19923;-82
2021/01/26 10:35:21;;;;;;;;;;;7.00;99.90;;;;;;4926394;28;19915;-81
2021/01/26 10:37:47;;;;;;;;;;;7.10;99.90;;;;;;4931875;28;19934;-81
2021/01/26 10:40:28;;;;;;;;;;;6.80;99.90;;;;;;4943063;28;19915;-81
2021/01/26 10:42:58;;;;;;;;;;;6.30;99.90;;;;;;4932986;28;20010;-83
2021/01/26 10:45:38;;;;;;;;;;;5.80;99.90;;;;;;4933905;28;20289;-82
2021/01/26 10:48:08;;;;;;;;;;;5.70;99.90;;;;;;4940796;28;19967;-81
2021/01/26 10:50:33;;;;;;;;;;;5.40;99.90;;;;;;4926023;28;20008;-81
2021/01/26 10:52:59;;;;;;;;;;;5.40;99.90;;;;;;4926759;29;20371;-83
2021/01/26 10:55:24;;;;;;;;;;;5.60;99.90;;;;;;4929562;28;20467;-81
2021/01/26 10:57:51;;;;;;;;;;;5.60;99.90;;;;;;4949078;28;19990;-81
2021/01/26 11:00:18;;;;;;;;;;;6.80;99.90;;;;;;4943210;28;20274;-81
2021/01/26 11:02:43;;;;;;;;;;;7.20;99.90;;;;;;4934849;28;20029;-82
2021/01/26 11:05:11;;;;;;;;;;;6.90;99.90;;;;;;4943411;28;20064;-82
2021/01/26 11:07:37;;;;;;;;;;;6.60;99.90;;;;;;4939572;28;19915;-85
2021/01/26 11:10:03;;;;;;;;;;;6.60;99.90;;;;;;4942781;28;19914;-84
2021/01/26 11:12:29;;;;;;;;;;;7.00;99.90;;;;;;4926578;28;19926;-84
2021/01/26 11:14:54;;;;;;;;;;;7.80;99.90;;;;;;4942819;28;19955;-82
2021/01/26 11:17:20;;;;;;;;;;;9.10;99.90;;;;;;4921309;28;20312;-82
2021/01/26 11:19:49;;;;;;;;;;;8.40;99.90;;;;;;4959856;28;19921;-82
2021/01/26 11:22:15;;;;;;;;;;;8.20;99.90;;;;;;4967040;28;19917;-82
2021/01/26 11:24:42;;;;;;;;;;;8.50;99.90;;;;;;4970655;28;20404;-82
2021/01/26 11:27:09;;;;;;;;;;;8.70;99.90;;;;;;4994155;28;19928;-82
2021/01/26 11:29:34;;;;;;;;;;;8.50;99.90;;;;;;4973434;28;19914;-82
2021/01/26 11:32:00;;;;;;;;;;;8.50;99.90;;;;;;4944129;28;20012;-81
2021/01/26 11:34:26;;;;;;;;;;;8.00;99.90;;;;;;4945150;28;19922;-82
2021/01/26 11:36:51;;;;;;;;;;;8.00;99.90;;;;;;4946336;28;19950;-82
2021/01/26 11:39:17;;;;;;;;;;;8.40;99.90;;;;;;4948203;28;19973;-82
2021/01/26 11:41:42;;;;;;;;;;;7.50;99.90;;;;;;4947500;28;20059;-82
2021/01/26 11:44:08;;;;;;;;;;;7.10;99.90;;;;;;4943708;28;19931;-83
2021/01/26 11:46:33;;;;;;;;;;;8.30;99.90;;;;;;4941162;28;20632;-82
2021/01/26 11:49:00;;;;;;;;;;;8.60;99.90;;;;;;4930435;28;19968;-83
2021/01/26 11:51:26;;;;;;;;;;;8.90;99.90;;;;;;4941810;28;20311;-82
2021/01/26 11:53:51;;;;;;;;;;;8.80;99.90;;;;;;4940087;28;20035;-82
2021/01/26 11:56:19;;;;;;;;;;;8.70;99.90;;;;;;4926562;28;20021;-82
2021/01/26 11:58:45;;;;;;;;;;;8.20;99.90;;;;;;4941276;28;19964;-83
2021/01/26 12:01:10;;;;;;;;;;;7.80;99.90;;;;;;4942263;28;20028;-83
2021/01/26 12:03:36;;;;;;;;;;;7.40;99.90;;;;;;4956863;28;19992;-82
2021/01/26 12:06:01;;;;;;;;;;;7.10;99.90;;;;;;4946397;28;19937;-82
2021/01/26 12:08:27;;;;;;;;;;;6.70;99.90;;;;;;4948474;28;19922;-82
2021/01/26 12:10:52;;;;;;;;;;;6.50;99.90;;;;;;4906283;29;19916;-82
2021/01/26 12:13:18;;;;;;;;;;;6.40;99.90;;;;;;4908276;29;19919;-82
2021/01/26 12:15:45;;;;;;;;;;;6.20;99.90;;;;;;4892513;29;19915;-81
2021/01/26 12:18:13;;;;;;;;;;;6.20;99.90;;;;;;4905004;29;19922;-82
2021/01/26 12:20:39;;;;;;;;;;;6.20;99.90;;;;;;4906380;29;19926;-83
2021/01/26 12:23:04;;;;;;;;;;;6.20;99.90;;;;;;4914724;29;19919;-83
2021/01/26 12:25:31;;;;;;;;;;;6.30;99.90;;;;;;4914223;29;19946;-82
2021/01/26 12:27:56;;;;;;;;;;;6.40;99.90;;;;;;4916539;29;21728;-82
2021/01/26 12:30:22;;;;;;;;;;;6.40;99.90;;;;;;4910584;29;19970;-83
2021/01/26 12:32:48;;;;;;;;;;;6.20;99.90;;;;;;4906300;29;19923;-82
2021/01/26 12:35:16;;;;;;;;;;;6.20;99.90;;;;;;4911463;29;20457;-82
2021/01/26 12:37:41;;;;;;;;;;;6.30;99.90;;;;;;4912889;29;19946;-82
2021/01/26 12:40:07;;;;;;;;;;;6.30;99.90;;;;;;4926786;29;19958;-83
2021/01/26 12:42:33;;;;;;;;;;;6.30;99.90;;;;;;4911310;29;19957;-83
2021/01/26 12:44:58;;;;;;;;;;;6.30;99.90;;;;;;4909666;29;20362;-83
2021/01/26 12:47:24;;;;;;;;;;;6.20;99.90;;;;;;4919127;28;19953;-83
2021/01/26 12:49:50;;;;;;;;;;;6.20;99.90;;;;;;4985973;28;19922;-82
2021/01/26 12:52:16;;;;;;;;;;;6.40;99.90;;;;;;4969770;28;19964;-82
2021/01/26 12:54:46;;;;;;;;;;;6.30;99.90;;;;;;4967459;28;20056;-81
2021/01/26 12:57:11;;;;;;;;;;;6.20;99.90;;;;;;4966342;28;19922;-81
2021/01/26 12:59:36;;;;;;;;;;;6.10;99.90;;;;;;4965802;28;19928;-81
2021/01/26 13:02:02;;;;;;;;;;;6.10;99.90;;;;;;4966151;28;20486;-84
2021/01/26 13:04:27;;;;;;;;;;;6.10;99.90;;;;;;4967717;28;19933;-82
2021/01/26 13:06:53;;;;;;;;;;;6.00;99.90;;;;;;4969687;28;19921;-82
2021/01/26 13:09:20;;;;;;;;;;;6.00;99.90;;;;;;4977027;28;19918;-82
2021/01/26 13:11:47;;;;;;;;;;;5.90;99.90;;;;;;4974480;28;20395;-82
2021/01/26 13:14:13;;;;;;;;;;;5.90;99.90;;;;;;4987226;28;19961;-81
2021/01/26 13:16:38;;;;;;;;;;;5.70;99.90;;;;;;4966812;28;20617;-81
2021/01/26 13:19:05;;;;;;;;;;;5.30;99.90;;;;;;4979668;28;19922;-81
2021/01/26 13:21:30;;;;;;;;;;;5.00;99.90;;;;;;4979849;28;20320;-82
2021/01/26 13:23:56;;;;;;;;;;;4.70;99.90;;;;;;4984540;28;19920;-82
2021/01/26 13:26:22;;;;;;;;;;;4.70;99.90;;;;;;4967312;28;20342;-82
2021/01/26 13:28:47;;;;;;;;;;;4.80;99.90;;;;;;4968824;28;21012;-81
2021/01/26 13:31:12;;;;;;;;;;;4.70;99.90;;;;;;4970865;28;19914;-81
2021/01/26 13:33:39;;;;;;;;;;;4.80;99.90;;;;;;4975494;28;20025;-81
2021/01/26 13:36:05;;;;;;;;;;;4.80;99.90;;;;;;4968923;28;20512;-82
2021/01/26 13:38:32;;;;;;;;;;;4.70;99.90;;;;;;4966771;28;19961;-82
2021/01/26 13:41:00;;;;;;;;;;;4.70;99.90;;;;;;4970072;28;20314;-82
2021/01/26 13:43:26;;;;;;;;;;;4.60;99.90;;;;;;4968456;28;19996;-81
2021/01/26 13:45:51;;;;;;;;;;;4.60;99.90;;;;;;4966202;28;19957;-81
2021/01/26 13:48:17;;;;;;;;;;;4.50;99.90;;;;;;4954109;28;21192;-82
2021/01/26 13:50:43;;;;;;;;;;;4.50;99.90;;;;;;4968561;28;19921;-82
2021/01/26 13:53:08;;;;;;;;;;;4.50;99.90;;;;;;4970067;28;19918;-82
2021/01/26 13:55:34;;;;;;;;;;;4.60;99.90;;;;;;4990970;28;20454;-82
2021/01/26 13:58:00;;;;;;;;;;;4.70;99.90;;;;;;4970661;28;19950;-82
2021/01/26 14:00:28;;;;;;;;;;;4.70;99.90;;;;;;4968858;28;19929;-82
2021/01/26 14:02:57;;;;;;;;;;;4.80;99.90;;;;;;4972199;28;19920;-82
2021/01/26 14:05:24;;;;;;;;;;;4.70;99.90;;;;;;4968478;28;20354;-82
2021/01/26 14:07:50;;;;;;;;;;;4.70;99.90;;;;;;4969018;28;19952;-83
2021/01/26 14:10:17;;;;;;;;;;;4.60;99.90;;;;;;4979184;28;19918;-82
2021/01/26 14:12:43;;;;;;;;;;;4.60;99.90;;;;;;4989175;28;19998;-82
2021/01/26 14:15:09;;;;;;;;;;;4.60;99.90;;;;;;4991033;28;20051;-82
2021/01/26 14:17:34;;;;;;;;;;;4.50;99.90;;;;;;4973353;28;19921;-82
2021/01/26 14:20:00;;;;;;;;;;;4.60;99.90;;;;;;4977529;28;19964;-83
2021/01/26 14:22:25;;;;;;;;;;;4.60;99.90;;;;;;4950298;28;19925;-82
2021/01/26 14:24:51;;;;;;;;;;;4.70;99.90;;;;;;4955525;28;19933;-83
2021/01/26 14:27:17;;;;;;;;;;;4.80;99.90;;;;;;4951958;28;19964;-82
2021/01/26 14:29:45;;;;;;;;;;;4.80;99.90;;;;;;4949073;28;19955;-82
2021/01/26 14:32:11;;;;;;;;;;;4.80;99.90;;;;;;4940340;28;19932;-82
2021/01/26 14:34:36;;;;;;;;;;;4.90;99.90;;;;;;4954323;28;19954;-81
2021/01/26 14:37:02;;;;;;;;;;;4.90;99.90;;;;;;4939821;28;19971;-81
2021/01/26 14:39:27;;;;;;;;;;;4.90;99.90;;;;;;4943643;28;19919;-82
2021/01/26 14:41:53;;;;;;;;;;;4.90;99.90;;;;;;4957130;28;20380;-82
2021/01/26 14:44:18;;;;;;;;;;;4.90;99.90;;;;;;4951262;28;19989;-83
2021/01/26 14:46:44;;;;;;;;;;;4.90;99.90;;;;;;4936773;28;20224;-82
2021/01/26 14:49:09;;;;;;;;;;;4.70;99.90;;;;;;4949274;28;19922;-83
2021/01/26 14:51:35;;;;;;;;;;;4.40;99.90;;;;;;4937441;28;20014;-82
2021/01/26 14:54:00;;;;;;;;;;;4.20;99.90;;;;;;4942900;28;19952;-82
2021/01/26 14:56:26;;;;;;;;;;;4.10;99.90;;;;;;4972295;28;20371;-82
2021/01/26 14:58:51;;;;;;;;;;;4.00;99.90;;;;;;4971574;28;19949;-82
2021/01/26 15:01:17;;;;;;;;;;;4.00;99.90;;;;;;4962554;28;19929;-82
2021/01/26 15:03:42;;;;;;;;;;;4.00;99.90;;;;;;4958949;28;19914;-82
2021/01/26 15:06:08;;;;;;;;;;;4.00;99.90;;;;;;4957818;28;19943;-82
2021/01/26 15:08:34;;;;;;;;;;;4.00;99.90;;;;;;4976032;28;19914;-82